createdAt,value
2018-04-20T00:00:32.673Z,2.40
2018-04-20T00:03:00.475Z,2.23
2018-04-20T00:05:27.919Z,2.90
2018-04-20T00:07:57.700Z,2.27
2018-04-20T00:10:26.976Z,1.87
2018-04-20T00:12:54.409Z,2.40
2018-04-20T00:15:21.922Z,2.13
2018-04-20T00:17:49.417Z,1.90
2018-04-20T00:20:16.874Z,2.60
2018-04-20T00:22:44.678Z,2.90
2018-04-20T00:25:12.173Z,2.47
2018-04-20T00:27:39.620Z,2.33
2018-04-20T00:30:07.072Z,2.63
2018-04-20T00:32:34.533Z,2.87
2018-04-20T00:35:01.975Z,2.20
2018-04-20T00:37:29.419Z,3.37
2018-04-20T00:39:56.864Z,2.30
2018-04-20T00:42:24.316Z,3.00
2018-04-20T00:44:52.559Z,2.10
2018-04-20T00:47:20.147Z,3.10
2018-04-20T00:49:47.605Z,3.97
2018-04-20T00:52:15.055Z,4.00
2018-04-20T00:54:42.503Z,4.33
2018-04-20T00:57:10.200Z,3.10
2018-04-20T00:59:37.637Z,3.13
2018-04-20T01:06:39.636Z,2.57
2018-04-20T01:09:07.080Z,2.40
2018-04-20T01:11:34.544Z,2.60
2018-04-20T01:14:02.022Z,2.63
2018-04-20T01:16:29.469Z,3.03
2018-04-20T01:18:56.919Z,3.90
2018-04-20T01:21:24.595Z,3.40
2018-04-20T01:23:52.032Z,2.60
2018-04-20T01:26:19.513Z,3.50
2018-04-20T01:28:46.939Z,2.87
2018-04-20T01:31:14.490Z,2.50
2018-04-20T01:33:41.954Z,2.63
2018-04-20T01:36:10.285Z,3.33
2018-04-20T01:38:37.741Z,2.50
2018-04-20T01:41:05.436Z,4.20
2018-04-20T01:43:32.890Z,3.23
2018-04-20T01:46:00.769Z,3.50
2018-04-20T01:48:28.204Z,3.00
2018-04-20T01:50:55.662Z,2.30
2018-04-20T01:53:23.100Z,2.73
2018-04-20T01:55:50.539Z,3.53
2018-04-20T01:58:18.759Z,2.60
2018-04-20T02:00:46.255Z,2.93
2018-04-20T02:03:13.954Z,2.73
2018-04-20T02:05:41.400Z,3.80
2018-04-20T02:08:08.844Z,2.70
2018-04-20T02:10:36.300Z,2.63
2018-04-20T02:13:03.766Z,2.90
2018-04-20T02:15:31.220Z,2.83
2018-04-20T02:17:58.669Z,2.63
2018-04-20T02:20:26.107Z,3.03
2018-04-20T02:22:53.567Z,2.10
2018-04-20T02:25:21.004Z,2.87
2018-04-20T02:27:48.452Z,2.87
2018-04-20T02:30:15.909Z,2.83
2018-04-20T02:32:43.360Z,3.27
2018-04-20T02:35:11.011Z,4.27
2018-04-20T02:37:38.458Z,3.67
2018-04-20T02:40:05.916Z,2.53
2018-04-20T02:42:33.356Z,2.80
2018-04-20T02:45:00.803Z,3.20
2018-04-20T02:47:28.257Z,3.27
2018-04-20T02:49:55.696Z,2.57
2018-04-20T02:52:23.182Z,2.53
2018-04-20T02:54:50.612Z,3.37
2018-04-20T02:57:18.060Z,3.50
2018-04-20T02:59:45.720Z,3.33
2018-04-20T03:02:13.199Z,2.90
2018-04-20T03:04:40.663Z,2.73
2018-04-20T03:07:08.349Z,3.23
2018-04-20T03:09:35.784Z,3.43
2018-04-20T03:12:03.246Z,3.27
2018-04-20T03:14:30.914Z,3.20
2018-04-20T03:16:58.407Z,3.13
2018-04-20T03:19:26.122Z,4.00
2018-04-20T03:21:53.794Z,2.77
2018-04-20T03:24:21.242Z,2.80
2018-04-20T03:26:50.196Z,3.83
2018-04-20T03:29:17.659Z,3.40
2018-04-20T03:31:45.122Z,3.30
2018-04-20T03:34:12.581Z,3.50
2018-04-20T03:36:40.040Z,3.07
2018-04-20T03:39:07.691Z,3.07
2018-04-20T03:41:35.166Z,3.73
2018-04-20T03:44:03.016Z,3.17
2018-04-20T03:46:30.473Z,3.40
2018-04-20T03:48:57.948Z,2.47
2018-04-20T03:51:25.970Z,3.10
2018-04-20T03:53:53.428Z,2.50
2018-04-20T03:56:21.693Z,3.40
2018-04-20T03:58:49.100Z,3.40
2018-04-20T04:01:16.579Z,3.47
2018-04-20T04:03:44.025Z,3.90
2018-04-20T04:06:11.488Z,3.80
2018-04-20T04:08:38.939Z,3.93
2018-04-20T04:11:06.380Z,3.50
2018-04-20T04:13:33.843Z,2.57
2018-04-20T04:16:01.280Z,3.60
2018-04-20T04:18:40.603Z,3.03
2018-04-20T04:21:32.781Z,3.27
2018-04-20T04:24:24.770Z,3.10
2018-04-20T04:27:03.957Z,2.60
2018-04-20T04:29:31.409Z,3.27
2018-04-20T04:31:58.870Z,3.23
2018-04-20T04:34:27.109Z,4.33
2018-04-20T04:36:54.561Z,3.60
2018-04-20T04:39:22.018Z,3.33
2018-04-20T04:41:49.487Z,3.30
2018-04-20T04:44:16.923Z,3.67
2018-04-20T04:46:44.388Z,2.90
2018-04-20T04:49:13.232Z,2.40
2018-04-20T04:51:40.696Z,3.10
2018-04-20T04:54:08.157Z,2.57
2018-04-20T04:56:37.099Z,4.20
2018-04-20T04:59:04.558Z,3.27
2018-04-20T05:01:32.033Z,3.70
2018-04-20T05:03:59.464Z,3.50
2018-04-20T05:06:27.207Z,2.70
2018-04-20T05:08:54.661Z,3.10
2018-04-20T05:11:22.160Z,3.50
2018-04-20T05:13:49.592Z,3.23
2018-04-20T05:16:17.028Z,5.20
2018-04-20T05:18:45.003Z,3.20
2018-04-20T05:21:12.584Z,4.10
2018-04-20T05:23:40.064Z,3.73
2018-04-20T05:26:07.508Z,4.40
2018-04-20T05:28:34.954Z,3.70
2018-04-20T05:31:02.403Z,4.17
2018-04-20T05:33:29.875Z,4.20
2018-04-20T05:35:57.319Z,3.90
2018-04-20T05:38:24.764Z,5.03
2018-04-20T05:40:52.200Z,3.80
2018-04-20T05:43:23.103Z,4.93
2018-04-20T05:45:50.537Z,4.40
2018-04-20T05:48:17.998Z,3.63
2018-04-20T05:50:45.436Z,5.17
2018-04-20T05:53:12.885Z,4.60
2018-04-20T05:55:40.336Z,4.00
2018-04-20T05:58:07.807Z,4.13
2018-04-20T06:00:35.256Z,4.97
2018-04-20T06:03:02.717Z,3.83
2018-04-20T06:05:30.160Z,3.13
2018-04-20T06:07:57.836Z,4.13
2018-04-20T06:10:26.045Z,3.77
2018-04-20T06:12:53.784Z,3.63
2018-04-20T06:15:21.229Z,4.20
2018-04-20T06:17:48.689Z,3.60
2018-04-20T06:20:16.131Z,4.73
2018-04-20T06:22:43.587Z,4.40
2018-04-20T06:25:11.053Z,5.20
2018-04-20T06:27:38.489Z,4.33
2018-04-20T06:30:05.929Z,3.80
2018-04-20T06:32:33.379Z,3.83
2018-04-20T06:35:00.815Z,4.03
2018-04-20T06:37:28.267Z,5.03
2018-04-20T06:39:55.835Z,4.70
2018-04-20T06:42:23.288Z,3.83
2018-04-20T06:44:50.744Z,4.80
2018-04-20T06:47:18.201Z,4.23
2018-04-20T06:49:45.649Z,5.10
2018-04-20T06:52:13.133Z,4.20
2018-04-20T06:54:40.630Z,3.53
2018-04-20T06:57:08.099Z,4.40
2018-04-20T06:59:35.549Z,4.00
2018-04-20T07:02:03.011Z,4.67
2018-04-20T07:04:30.454Z,4.70
2018-04-20T07:06:57.895Z,5.20
2018-04-20T07:09:25.357Z,3.47
2018-04-20T07:11:52.825Z,3.40
2018-04-20T07:14:20.279Z,3.80
2018-04-20T07:16:47.700Z,3.57
2018-04-20T07:19:15.254Z,3.97
2018-04-20T07:21:42.816Z,3.57
2018-04-20T07:24:10.256Z,3.97
2018-04-20T07:26:37.830Z,4.00
2018-04-20T07:29:05.277Z,2.97
2018-04-20T07:31:33.501Z,3.27
2018-04-20T07:34:00.988Z,3.83
2018-04-20T07:36:28.419Z,3.10
2018-04-20T07:38:56.654Z,3.80
2018-04-20T07:41:24.628Z,4.70
2018-04-20T07:43:52.033Z,3.80
2018-04-20T07:46:20.248Z,4.10
2018-04-20T07:48:47.931Z,4.20
2018-04-20T07:51:15.657Z,3.63
2018-04-20T07:53:43.093Z,3.60
2018-04-20T07:56:10.885Z,3.50
2018-04-20T07:58:38.330Z,3.53
2018-04-20T08:01:05.840Z,3.27
2018-04-20T08:03:33.332Z,2.73
2018-04-20T08:06:00.767Z,3.87
2018-04-20T08:08:28.200Z,2.77
2018-04-20T08:10:55.656Z,3.87
2018-04-20T08:13:23.093Z,3.70
2018-04-20T08:15:51.321Z,3.13
2018-04-20T08:18:18.770Z,3.67
2018-04-20T08:20:46.456Z,2.90
2018-04-20T08:23:13.950Z,3.20
2018-04-20T08:25:41.388Z,3.97
2018-04-20T08:28:08.944Z,3.33
2018-04-20T08:30:36.400Z,3.87
2018-04-20T08:33:03.845Z,2.87
2018-04-20T08:35:31.288Z,2.50
2018-04-20T08:37:58.741Z,3.97
2018-04-20T08:40:26.962Z,2.80
2018-04-20T08:42:54.389Z,3.03
2018-04-20T08:45:21.819Z,3.10
2018-04-20T08:47:49.270Z,2.50
2018-04-20T08:50:16.714Z,3.50
2018-04-20T08:52:44.162Z,3.43
2018-04-20T08:55:11.604Z,2.70
2018-04-20T08:57:39.113Z,2.43
2018-04-20T09:00:06.572Z,2.67
2018-04-20T09:02:36.467Z,2.73
2018-04-20T09:05:04.145Z,3.37
2018-04-20T09:07:31.623Z,3.43
2018-04-20T09:09:59.076Z,3.40
2018-04-20T09:12:26.531Z,3.70
2018-04-20T09:17:27.463Z,3.13
2018-04-20T09:19:55.011Z,2.90
2018-04-20T09:22:22.596Z,3.53
2018-04-20T09:24:50.358Z,2.10
2018-04-20T09:27:17.805Z,2.53
2018-04-20T09:29:45.251Z,2.53
2018-04-20T09:32:12.804Z,2.60
2018-04-20T09:34:40.523Z,2.87
2018-04-20T09:37:07.975Z,2.77
2018-04-20T09:39:35.412Z,2.23
2018-04-20T09:42:03.657Z,2.90
2018-04-20T09:44:31.101Z,2.73
2018-04-20T09:46:58.552Z,2.97
2018-04-20T09:49:26.013Z,2.90
2018-04-20T09:51:53.812Z,2.73
2018-04-20T09:54:21.376Z,2.87
2018-04-20T09:56:48.835Z,2.60
2018-04-20T09:59:16.276Z,1.83
2018-04-20T10:01:45.629Z,2.50
2018-04-20T10:04:16.283Z,2.40
2018-04-20T10:06:43.724Z,2.70
2018-04-20T10:09:11.178Z,2.33
2018-04-20T10:11:38.624Z,2.10
2018-04-20T10:14:06.056Z,2.50
2018-04-20T10:16:33.495Z,2.10
2018-04-20T10:19:00.985Z,2.77
2018-04-20T10:21:28.564Z,2.20
2018-04-20T10:23:56.219Z,2.07
2018-04-20T10:26:23.655Z,1.87
2018-04-20T10:28:51.559Z,2.47
2018-04-20T10:31:19.032Z,2.00
2018-04-20T10:33:46.707Z,2.40
2018-04-20T10:36:14.164Z,2.20
2018-04-20T10:38:41.693Z,2.23
2018-04-20T10:41:09.187Z,1.70
2018-04-20T10:43:37.683Z,1.80
2018-04-20T10:46:05.232Z,2.00
2018-04-20T10:48:32.698Z,2.03
2018-04-20T10:51:00.228Z,2.10
2018-04-20T10:53:28.011Z,2.23
2018-04-20T10:55:55.876Z,2.33
2018-04-20T10:58:23.320Z,1.90
2018-04-20T11:00:50.755Z,2.00
2018-04-20T11:03:18.353Z,1.87
2018-04-20T11:05:45.780Z,2.80
2018-04-20T11:08:13.296Z,1.70
2018-04-20T11:10:40.735Z,2.00
2018-04-20T11:13:08.405Z,2.00
2018-04-20T11:15:35.840Z,1.90
2018-04-20T11:18:03.272Z,2.47
2018-04-20T11:20:30.721Z,2.40
2018-04-20T11:22:58.160Z,2.20
2018-04-20T11:25:25.637Z,2.30
2018-04-20T11:27:53.184Z,2.33
2018-04-20T11:30:20.615Z,2.67
2018-04-20T11:32:48.057Z,2.10
2018-04-20T11:35:15.527Z,2.30
2018-04-20T11:37:42.969Z,2.00
2018-04-20T11:40:10.399Z,1.80
2018-04-20T11:42:37.864Z,1.97
2018-04-20T11:45:05.304Z,2.20
2018-04-20T11:47:32.745Z,2.07
2018-04-20T11:50:00.205Z,1.97
2018-04-20T11:52:27.723Z,2.03
2018-04-20T11:54:55.160Z,2.40
2018-04-20T11:57:22.864Z,2.40
2018-04-20T11:59:50.304Z,2.07
2018-04-20T12:02:17.781Z,2.00
2018-04-20T12:04:45.199Z,1.60
2018-04-20T12:07:12.636Z,2.20
2018-04-20T12:09:40.071Z,1.83
2018-04-20T12:12:07.515Z,2.30
2018-04-20T12:14:34.964Z,2.03
2018-04-20T12:17:02.405Z,2.03
2018-04-20T12:19:29.866Z,2.30
2018-04-20T12:21:57.318Z,1.57
2018-04-20T12:24:24.811Z,1.93
2018-04-20T12:26:52.267Z,2.20
2018-04-20T12:29:19.718Z,1.90
2018-04-20T12:31:47.159Z,2.30
2018-04-20T12:34:14.816Z,1.90
2018-04-20T12:36:42.255Z,1.70
2018-04-20T12:39:09.715Z,1.70
2018-04-20T12:41:37.175Z,2.20
2018-04-20T12:44:04.622Z,2.00
2018-04-20T12:46:32.063Z,1.60
2018-04-20T12:48:59.521Z,1.87
2018-04-20T12:51:26.978Z,2.13
2018-04-20T12:53:54.416Z,1.90
2018-04-20T12:56:22.125Z,1.53
2018-04-20T12:58:49.617Z,1.57
2018-04-20T13:01:17.064Z,2.60
2018-04-20T13:03:44.540Z,1.63
2018-04-20T13:06:11.978Z,2.30
2018-04-20T13:08:39.410Z,1.77
2018-04-20T13:11:07.115Z,2.10
2018-04-20T13:13:34.556Z,1.67
2018-04-20T13:16:02.017Z,2.20
2018-04-20T13:18:29.459Z,2.13
2018-04-20T13:20:56.897Z,1.97
2018-04-20T13:23:24.491Z,1.30
2018-04-20T13:25:51.928Z,2.13
2018-04-20T13:28:19.388Z,1.77
2018-04-20T13:30:46.830Z,2.00
2018-04-20T13:33:14.545Z,2.20
2018-04-20T13:35:41.983Z,2.10
2018-04-20T13:38:09.413Z,1.90
2018-04-20T13:40:36.868Z,1.67
2018-04-20T13:43:04.312Z,1.90
2018-04-20T13:45:31.878Z,1.73
2018-04-20T13:47:59.330Z,2.40
2018-04-20T13:50:26.807Z,1.83
2018-04-20T13:52:54.264Z,1.90
2018-04-20T13:55:21.709Z,2.07
2018-04-20T13:57:49.152Z,1.83
2018-04-20T14:00:16.652Z,1.90
2018-04-20T14:02:44.296Z,1.50
2018-04-20T14:05:11.747Z,1.53
2018-04-20T14:07:39.318Z,1.73
2018-04-20T14:10:06.768Z,1.90
2018-04-20T14:12:34.227Z,1.53
2018-04-20T14:15:01.722Z,1.83
2018-04-20T14:17:29.175Z,1.70
2018-04-20T14:19:56.633Z,2.10
2018-04-20T14:22:24.075Z,1.90
2018-04-20T14:24:51.528Z,1.53
2018-04-20T14:27:18.965Z,1.73
2018-04-20T14:29:46.488Z,1.60
2018-04-20T14:32:13.958Z,1.50
2018-04-20T14:34:41.528Z,1.47
2018-04-20T14:37:08.988Z,1.57
2018-04-20T14:39:36.654Z,1.50
2018-04-20T14:42:04.105Z,1.63
2018-04-20T14:44:31.537Z,1.67
2018-04-20T14:46:58.970Z,1.63
2018-04-20T14:49:27.189Z,1.40
2018-04-20T14:51:54.645Z,1.50
2018-04-20T14:54:22.219Z,1.13
2018-04-20T14:56:49.680Z,2.10
2018-04-20T14:59:17.111Z,2.13
2018-04-20T15:01:44.574Z,2.07
2018-04-20T15:04:12.648Z,1.53
2018-04-20T15:06:40.088Z,2.70
2018-04-20T15:09:07.541Z,1.90
2018-04-20T15:11:35.759Z,1.70
2018-04-20T15:14:03.210Z,1.80
2018-04-20T15:16:30.711Z,2.20
2018-04-20T15:18:58.221Z,1.50
2018-04-20T15:21:25.637Z,1.50
2018-04-20T15:23:53.118Z,1.13
2018-04-20T15:26:20.576Z,1.93
2018-04-20T15:28:48.023Z,1.70
2018-04-20T15:31:15.499Z,1.67
2018-04-20T15:33:43.175Z,1.73
2018-04-20T15:36:10.795Z,1.73
2018-04-20T15:38:38.232Z,1.23
2018-04-20T15:41:05.740Z,1.90
2018-04-20T15:43:33.287Z,1.57
2018-04-20T15:46:00.728Z,1.70
2018-04-20T15:48:28.163Z,1.90
2018-04-20T15:50:55.868Z,1.70
2018-04-20T15:53:23.299Z,2.20
2018-04-20T15:55:50.729Z,1.77
2018-04-20T15:58:19.707Z,1.80
2018-04-20T16:00:47.154Z,1.43
2018-04-20T16:03:14.581Z,1.37
2018-04-20T16:05:44.137Z,2.47
2018-04-20T16:08:11.581Z,1.67
2018-04-20T16:10:39.032Z,1.70
2018-04-20T16:13:06.459Z,1.37
2018-04-20T16:15:33.903Z,1.97
2018-04-20T16:18:01.352Z,1.70
2018-04-20T16:20:28.807Z,1.70
2018-04-20T16:22:56.368Z,1.03
2018-04-20T16:25:23.804Z,1.53
2018-04-20T16:27:51.242Z,1.50
2018-04-20T16:30:18.699Z,1.80
2018-04-20T16:32:46.135Z,1.90
2018-04-20T16:35:13.760Z,2.60
2018-04-20T16:37:41.440Z,1.53
2018-04-20T16:40:09.310Z,2.07
2018-04-20T16:42:36.872Z,1.97
2018-04-20T16:45:04.443Z,1.70
2018-04-20T16:47:31.904Z,1.40
2018-04-20T16:49:59.347Z,1.57
2018-04-20T16:52:27.161Z,1.47
2018-04-20T16:54:54.632Z,1.93
2018-04-20T16:57:23.581Z,1.60
2018-04-20T16:59:51.044Z,1.53
2018-04-20T17:02:18.503Z,1.53
2018-04-20T17:04:46.291Z,1.73
2018-04-20T17:07:13.784Z,2.00
2018-04-20T17:09:41.221Z,2.07
2018-04-20T17:12:08.671Z,1.30
2018-04-20T17:14:36.126Z,2.27
2018-04-20T17:17:03.557Z,1.43
2018-04-20T17:19:31.171Z,1.73
2018-04-20T17:21:58.645Z,1.27
2018-04-20T17:24:26.103Z,1.47
2018-04-20T17:26:53.633Z,2.43
2018-04-20T17:29:21.066Z,2.20
2018-04-20T17:31:48.895Z,1.63
2018-04-20T17:34:16.341Z,2.30
2018-04-20T17:36:44.196Z,1.83
2018-04-20T17:39:11.735Z,2.63
2018-04-20T17:41:39.957Z,2.17
2018-04-20T17:44:07.416Z,1.50
2018-04-20T17:46:34.844Z,2.33
2018-04-20T17:49:02.333Z,1.53
2018-04-20T17:51:29.887Z,2.37
2018-04-20T17:53:57.312Z,1.90
2018-04-20T17:56:25.535Z,1.80
2018-04-20T17:58:52.967Z,2.20
2018-04-20T18:01:20.440Z,2.20
2018-04-20T18:03:47.872Z,2.23
2018-04-20T18:06:15.508Z,2.20
2018-04-20T18:08:42.947Z,1.53
2018-04-20T18:11:10.397Z,1.87
2018-04-20T18:13:37.965Z,2.00
2018-04-20T18:16:05.409Z,2.10
2018-04-20T18:18:32.843Z,1.53
2018-04-20T18:21:01.059Z,2.67
2018-04-20T18:23:28.484Z,2.50
2018-04-20T18:25:56.032Z,2.00
2018-04-20T18:28:23.556Z,1.90
2018-04-20T18:30:50.981Z,1.97
2018-04-20T18:33:18.441Z,2.17
2018-04-20T18:35:45.876Z,2.73
2018-04-20T18:38:13.439Z,2.20
2018-04-20T18:40:41.292Z,1.40
2018-04-20T18:43:08.744Z,2.00
2018-04-20T18:45:36.203Z,2.10
2018-04-20T18:48:03.644Z,2.07
2018-04-20T18:50:31.308Z,2.30
2018-04-20T18:52:58.754Z,2.00
2018-04-20T18:55:26.212Z,1.87
2018-04-20T18:57:53.672Z,2.10
2018-04-20T19:00:21.118Z,2.20
2018-04-20T19:02:48.665Z,2.00
2018-04-20T19:05:16.111Z,2.63
2018-04-20T19:07:43.571Z,1.93
2018-04-20T19:10:11.015Z,2.50
2018-04-20T19:12:38.460Z,3.23
2018-04-20T19:15:05.905Z,4.37
2018-04-20T19:17:34.120Z,3.53
2018-04-20T19:20:01.579Z,5.13
2018-04-20T19:22:30.325Z,5.10
2018-04-20T19:24:58.848Z,5.77
2018-04-20T19:27:26.316Z,5.23
2018-04-20T19:29:53.889Z,5.10
2018-04-20T19:32:21.404Z,3.60
2018-04-20T19:34:49.616Z,2.47
2018-04-20T19:37:17.232Z,2.73
2018-04-20T19:39:44.755Z,2.33
2018-04-20T19:42:12.233Z,2.90
2018-04-20T19:44:39.668Z,3.43
2018-04-20T19:47:07.125Z,5.17
2018-04-20T19:49:34.703Z,3.53
2018-04-20T19:52:02.201Z,2.77
2018-04-20T19:54:29.745Z,2.80
2018-04-20T19:56:57.224Z,3.40
2018-04-20T19:59:24.686Z,2.70
2018-04-20T20:01:52.147Z,2.73
2018-04-20T20:04:19.603Z,2.87
2018-04-20T20:06:47.075Z,2.70
2018-04-20T20:09:16.024Z,3.07
2018-04-20T20:11:43.501Z,2.70
2018-04-20T20:14:10.934Z,3.27
2018-04-20T20:16:38.541Z,3.73
2018-04-20T20:19:06.313Z,3.37
2018-04-20T20:21:33.789Z,2.80
2018-04-20T20:24:01.236Z,2.43
2018-04-20T20:26:28.686Z,3.30
2018-04-20T20:28:56.355Z,3.30
2018-04-20T20:31:23.810Z,2.97
2018-04-20T20:33:51.265Z,3.03
2018-04-20T20:36:18.722Z,4.73
2018-04-20T20:38:46.178Z,3.83
2018-04-20T20:41:13.619Z,3.00
2018-04-20T20:43:41.827Z,4.03
2018-04-20T20:46:09.295Z,3.17
2018-04-20T20:48:36.738Z,3.63
2018-04-20T20:51:04.189Z,2.87
2018-04-20T20:53:32.398Z,3.43
2018-04-20T20:55:59.860Z,4.80
2018-04-20T20:58:27.320Z,5.47
2018-04-20T21:00:54.778Z,4.90
2018-04-20T21:03:22.223Z,3.80
2018-04-20T21:05:49.679Z,3.90
2018-04-20T21:08:17.140Z,4.03
2018-04-20T21:10:44.719Z,3.37
2018-04-20T21:13:12.204Z,4.53
2018-04-20T21:15:39.640Z,4.53
2018-04-20T21:18:07.080Z,3.40
2018-04-20T21:20:34.541Z,4.23
2018-04-20T21:23:01.996Z,4.97
2018-04-20T21:25:29.473Z,4.53
2018-04-20T21:27:56.915Z,4.30
2018-04-20T21:30:24.375Z,3.90
2018-04-20T21:32:51.804Z,4.60
2018-04-20T21:35:19.490Z,4.00
2018-04-20T21:37:46.936Z,4.87
2018-04-20T21:40:14.385Z,4.90
2018-04-20T21:42:41.888Z,5.87
2018-04-20T21:45:09.326Z,4.10
2018-04-20T21:47:36.802Z,4.40
2018-04-20T21:50:04.244Z,4.47
2018-04-20T21:52:31.844Z,4.30
2018-04-20T21:54:59.302Z,4.50
2018-04-20T21:57:26.878Z,4.20
2018-04-20T21:59:54.325Z,3.63
2018-04-20T22:02:21.769Z,4.57
2018-04-20T22:04:49.399Z,5.10
2018-04-20T22:07:16.852Z,4.67
2018-04-20T22:09:44.302Z,3.53
2018-04-20T22:12:11.761Z,3.90
2018-04-20T22:14:39.478Z,3.57
2018-04-20T22:17:06.923Z,3.10
2018-04-20T22:19:34.433Z,4.13
2018-04-20T22:22:01.974Z,3.87
2018-04-20T22:24:29.418Z,3.20
2018-04-20T22:26:57.203Z,4.50
2018-04-20T22:29:24.676Z,3.87
2018-04-20T22:31:56.316Z,3.90
2018-04-20T22:34:23.752Z,3.93
2018-04-20T22:36:51.314Z,5.47
2018-04-20T22:39:18.731Z,3.17
2018-04-20T22:41:46.199Z,4.10
2018-04-20T22:44:14.032Z,4.73
2018-04-20T22:46:41.526Z,4.17
2018-04-20T22:51:44.630Z,4.03
2018-04-20T22:54:12.085Z,3.77
2018-04-20T22:56:39.554Z,4.70
2018-04-20T22:59:07.495Z,4.90
2018-04-20T23:01:34.965Z,4.43
2018-04-20T23:04:02.420Z,4.00
2018-04-20T23:06:30.071Z,4.00
2018-04-20T23:08:57.852Z,3.97
2018-04-20T23:11:25.422Z,4.03
2018-04-20T23:13:52.983Z,4.77
2018-04-20T23:16:21.194Z,3.63
2018-04-20T23:18:48.728Z,3.50
2018-04-20T23:21:16.201Z,4.87
2018-04-20T23:23:43.772Z,4.60
2018-04-20T23:26:11.225Z,4.90
2018-04-20T23:28:38.782Z,3.60
2018-04-20T23:31:06.551Z,3.53
2018-04-20T23:33:34.008Z,4.20
2018-04-20T23:36:01.676Z,3.80
2018-04-20T23:38:29.439Z,4.00
2018-04-20T23:40:56.875Z,4.33
2018-04-20T23:43:24.329Z,4.67
2018-04-20T23:45:51.775Z,4.30
2018-04-20T23:48:19.993Z,3.73
2018-04-20T23:50:47.465Z,3.47
2018-04-20T23:53:14.908Z,4.00
2018-04-20T23:55:42.361Z,4.37
2018-04-20T23:58:09.804Z,3.83
